Time;durP1;ratioP1;P1;durP2;ratioP2;P2;SDS_P1;SDS_P2;PMS_P1;PMS_P2;Temp;Humidity;BMP_temperature;BMP_pressure;BME280_temperature;BME280_humidity;BME280_pressure;Samples;Min_cycle;Max_cycle;Signal;HPM_P1;HPM_P2
2021/08/19 00:01:19;;;;;;;;;1.67;1.00;;;;;22.42;42.00;98262.25;4882208;28;104968;-88
2021/08/19 00:03:46;;;;;;;;;1.33;1.33;;;;;22.41;42.11;98266.13;4879890;28;103783;-88
2021/08/19 00:06:14;;;;;;;;;1.00;1.00;;;;;22.40;42.04;98261.69;4878561;28;104052;-88
2021/08/19 00:08:44;;;;;;;;;1.00;1.00;;;;;22.35;41.88;98257.06;4882514;28;103987;-88
2021/08/19 00:11:23;;;;;;;;;1.33;0.67;;;;;22.34;42.19;98257.31;4889812;28;102832;-88
2021/08/19 00:13:57;;;;;;;;;2.00;2.00;;;;;22.38;42.07;98267.50;4886132;28;103101;-88
2021/08/19 00:16:32;;;;;;;;;1.00;0.67;;;;;22.37;42.07;98271.38;4888600;28;103093;-88
2021/08/19 00:19:11;;;;;;;;;1.00;0.67;;;;;22.35;42.12;98265.31;4886099;28;102282;-87
2021/08/19 00:21:47;;;;;;;;;1.00;1.00;;;;;22.35;42.29;98261.72;4884521;28;104877;-88
2021/08/19 00:24:20;;;;;;;;;2.33;0.67;;;;;22.35;42.31;98261.72;4872681;28;103097;-88
2021/08/19 00:26:59;;;;;;;;;1.00;0.67;;;;;22.33;42.27;98259.28;4884777;28;102974;-88
2021/08/19 00:29:32;;;;;;;;;1.67;1.67;;;;;22.32;41.97;98267.81;4897109;28;102250;-88
2021/08/19 00:32:12;;;;;;;;;0.67;0.67;;;;;22.33;42.36;98269.47;4806588;28;102311;-88
2021/08/19 00:34:53;;;;;;;;;2.00;2.00;;;;;22.32;42.14;98262.31;4872913;28;107142;-88
2021/08/19 00:37:31;;;;;;;;;2.00;1.00;;;;;22.31;42.29;98267.00;4890544;28;102560;-88
2021/08/19 00:40:13;;;;;;;;;2.00;1.00;;;;;22.30;42.33;98256.25;4809835;28;104941;-88
2021/08/19 00:42:48;;;;;;;;;1.00;1.00;;;;;22.29;42.08;98262.88;4873309;28;103008;-88
2021/08/19 00:45:16;;;;;;;;;2.67;2.00;;;;;22.27;42.03;98259.59;4879562;28;104424;-88
2021/08/19 00:47:43;;;;;;;;;2.00;2.00;;;;;22.28;42.34;98264.81;4893699;28;105944;-88
2021/08/19 00:50:10;;;;;;;;;1.50;0.50;;;;;22.27;42.31;98263.16;4878001;28;102134;-88
2021/08/19 00:52:38;;;;;;;;;2.00;1.00;;;;;22.28;42.24;98261.25;4895143;28;102269;-88
2021/08/19 00:55:06;;;;;;;;;1.67;0.67;;;;;22.25;42.09;98263.44;4864278;28;104045;-87
2021/08/19 00:57:34;;;;;;;;;1.00;1.00;;;;;22.27;42.01;98262.34;4884565;28;103701;-88
2021/08/19 01:00:01;;;;;;;;;1.00;1.00;;;;;22.23;42.44;98256.59;4906002;28;103888;-88
2021/08/19 01:02:28;;;;;;;;;1.67;1.00;;;;;22.22;42.26;98264.03;4847462;28;102579;-88
2021/08/19 01:04:56;;;;;;;;;2.00;2.00;;;;;22.22;42.32;98269.53;4865550;28;104316;-88
2021/08/19 01:07:23;;;;;;;;;0.67;0.67;;;;;22.23;42.01;98273.13;4889589;28;102772;-88
2021/08/19 01:09:53;;;;;;;;;2.00;1.00;;;;;22.20;42.25;98271.72;4868971;28;102654;-88
2021/08/19 01:12:27;;;;;;;;;0.67;0.67;;;;;22.19;42.13;98270.09;4875566;28;103509;-88
2021/08/19 01:15:03;;;;;;;;;1.00;0.67;;;;;22.19;42.10;98269.28;4896137;28;103797;-88
2021/08/19 01:17:37;;;;;;;;;1.00;1.00;;;;;22.18;42.23;98271.22;4876390;28;103091;-87
2021/08/19 01:20:12;;;;;;;;;1.33;1.33;;;;;22.18;42.29;98271.22;4876656;28;102939;-88
2021/08/19 01:22:49;;;;;;;;;2.00;2.00;;;;;22.18;42.08;98273.97;4899584;28;102117;-88
2021/08/19 01:25:24;;;;;;;;;1.00;1.00;;;;;22.17;42.07;98271.47;4899784;28;103051;-87
2021/08/19 01:28:00;;;;;;;;;1.00;1.00;;;;;22.15;41.92;98266.25;4904568;28;104244;-87
2021/08/19 01:30:35;;;;;;;;;0.67;0.67;;;;;22.16;42.00;98265.16;4913035;28;102932;-88
2021/08/19 01:33:13;;;;;;;;;2.00;2.00;;;;;22.17;42.31;98277.00;4885169;28;102717;-87
2021/08/19 01:36:00;;;;;;;;;1.67;1.00;;;;;22.17;42.40;98266.81;4906912;28;103117;-87
2021/08/19 01:38:34;;;;;;;;;2.00;1.00;;;;;22.16;41.95;98264.31;4898023;28;102460;-87
2021/08/19 01:41:11;;;;;;;;;1.00;0.67;;;;;22.15;42.39;98269.00;4902539;28;102567;-88
2021/08/19 01:43:53;;;;;;;;;2.00;2.00;;;;;22.12;42.11;98266.81;4915799;28;102311;-88
2021/08/19 01:46:26;;;;;;;;;1.67;0.67;;;;;22.13;42.07;98265.72;4903111;28;103760;-88
2021/08/19 01:49:03;;;;;;;;;0.67;0.67;;;;;22.12;42.03;98274.25;4909742;28;102137;-88
2021/08/19 01:51:34;;;;;;;;;1.00;1.00;;;;;22.12;42.46;98261.31;4904530;28;102669;-88
2021/08/19 01:54:02;;;;;;;;;3.00;2.00;;;;;22.09;42.39;98264.66;4923252;28;102519;-88
2021/08/19 01:56:29;;;;;;;;;1.00;1.00;;;;;22.10;42.24;98263.56;4907587;28;104928;-88
2021/08/19 01:58:56;;;;;;;;;0.67;0.67;;;;;22.10;41.99;98266.31;4897993;28;110540;-88
2021/08/19 02:01:24;;;;;;;;;0.67;0.67;;;;;22.09;42.14;98261.91;4906924;28;102864;-88
2021/08/19 02:03:52;;;;;;;;;0.67;0.67;;;;;22.07;42.21;98266.84;4899746;28;105520;-88
2021/08/19 02:06:20;;;;;;;;;1.00;1.00;;;;;22.07;42.16;98260.50;4907094;28;104563;-88
2021/08/19 02:08:47;;;;;;;;;1.00;1.00;;;;;22.06;42.24;98275.41;4906708;28;102708;-88
2021/08/19 02:11:14;;;;;;;;;0.33;0.33;;;;;22.06;42.14;98273.50;4901300;28;104454;-88
2021/08/19 02:13:41;;;;;;;;;1.00;1.00;;;;;22.04;42.00;98264.66;4919570;28;102499;-88
2021/08/19 02:16:09;;;;;;;;;2.00;2.00;;;;;22.03;42.10;98268.53;4897606;28;104066;-87
2021/08/19 02:18:36;;;;;;;;;1.67;1.67;;;;;22.03;42.07;98265.78;4901365;28;102613;-88
2021/08/19 02:21:03;;;;;;;;;0.67;0.67;;;;;22.01;42.19;98262.50;4899174;28;102947;-88
2021/08/19 02:23:30;;;;;;;;;1.33;1.33;;;;;22.01;42.17;98262.50;4899586;28;102532;-88
2021/08/19 02:25:57;;;;;;;;;2.33;2.00;;;;;22.01;42.07;98261.66;4880195;28;104249;-88
2021/08/19 02:28:25;;;;;;;;;1.00;1.00;;;;;22.01;42.49;98267.16;4895307;28;102433;-87
2021/08/19 02:30:52;;;;;;;;;1.33;1.00;;;;;21.99;42.07;98255.59;4885752;28;111103;-88
2021/08/19 02:33:19;;;;;;;;;2.00;2.00;;;;;22.00;42.47;98252.56;4898339;28;102630;-88
2021/08/19 02:35:46;;;;;;;;;1.00;1.00;;;;;22.00;42.42;98258.09;4888709;28;104709;-87
2021/08/19 02:38:13;;;;;;;;;0.00;0.00;;;;;21.98;42.22;98257.53;4897377;28;102540;-88
2021/08/19 02:40:41;;;;;;;;;0.00;0.00;;;;;21.97;42.27;98257.84;4889027;28;102411;-87
2021/08/19 02:43:08;;;;;;;;;1.33;1.33;;;;;21.95;42.28;98258.09;4908461;28;103171;-88
2021/08/19 02:45:36;;;;;;;;;0.33;0.33;;;;;21.94;42.13;98261.97;4903200;28;104419;-88
2021/08/19 02:48:03;;;;;;;;;1.33;0.67;;;;;21.93;42.58;98259.50;4894137;28;104232;-88
2021/08/19 02:50:30;;;;;;;;;1.33;1.33;;;;;21.94;42.49;98264.72;4895304;28;102407;-88
2021/08/19 02:52:58;;;;;;;;;1.33;1.00;;;;;21.94;42.59;98255.63;4895308;28;105446;-88
2021/08/19 02:55:26;;;;;;;;;1.00;0.33;;;;;21.93;42.01;98254.81;4871289;28;104179;-88
2021/08/19 02:57:53;;;;;;;;;2.00;2.00;;;;;21.92;42.58;98250.41;4902357;28;102214;-88
2021/08/19 03:00:20;;;;;;;;;1.67;1.00;;;;;21.93;42.07;98248.50;4897223;28;102584;-88
2021/08/19 03:02:47;;;;;;;;;1.33;1.33;;;;;21.92;42.37;98249.56;4899534;28;111680;-88
2021/08/19 03:05:15;;;;;;;;;1.00;1.00;;;;;21.90;42.00;98244.34;4887316;28;103831;-88
2021/08/19 03:07:43;;;;;;;;;1.00;1.00;;;;;21.89;42.36;98248.19;4890763;28;102497;-88
2021/08/19 03:10:10;;;;;;;;;1.00;1.00;;;;;21.91;42.00;98261.69;4889113;28;102210;-88
2021/08/19 03:12:37;;;;;;;;;1.67;1.33;;;;;21.88;41.94;98252.06;4882446;28;110335;-88
2021/08/19 03:15:05;;;;;;;;;0.67;0.67;;;;;21.90;42.25;98254.53;4889620;28;108947;-88
2021/08/19 03:17:33;;;;;;;;;2.00;1.00;;;;;21.89;42.05;98245.44;4902203;28;103009;-88
2021/08/19 03:20:01;;;;;;;;;2.00;1.00;;;;;21.87;42.04;98255.91;4895872;28;102514;-88
2021/08/19 03:22:28;;;;;;;;;0.67;0.67;;;;;21.87;42.18;98260.59;4885171;28;104361;-87
2021/08/19 03:24:55;;;;;;;;;1.67;1.67;;;;;21.87;42.13;98253.16;4893142;28;104087;-88
2021/08/19 03:27:22;;;;;;;;;1.67;1.67;;;;;21.84;42.07;98256.47;4892172;28;102637;-87
2021/08/19 03:29:50;;;;;;;;;1.00;1.00;;;;;21.84;42.16;98252.91;4895094;28;103118;-87
2021/08/19 03:32:17;;;;;;;;;1.67;1.67;;;;;21.82;42.14;98247.69;4893685;28;102422;-88
2021/08/19 03:34:44;;;;;;;;;1.00;1.00;;;;;21.83;42.66;98243.84;4889612;28;104296;-88
2021/08/19 03:37:11;;;;;;;;;1.00;0.67;;;;;21.82;42.59;98244.94;4879851;28;102180;-88
2021/08/19 03:39:39;;;;;;;;;0.67;0.67;;;;;21.82;42.25;98242.19;4890141;28;105632;-88
2021/08/19 03:42:06;;;;;;;;;1.33;1.33;;;;;21.84;42.40;98256.47;4892447;28;102080;-88
2021/08/19 03:44:33;;;;;;;;;1.67;1.33;;;;;21.82;42.49;98253.19;4893045;28;108898;-88
2021/08/19 03:47:01;;;;;;;;;2.00;2.00;;;;;21.79;42.00;98251.00;4886471;28;103143;-88
2021/08/19 03:49:28;;;;;;;;;1.33;0.67;;;;;21.81;42.22;98257.88;4889358;28;103113;-88
2021/08/19 03:51:55;;;;;;;;;1.00;1.00;;;;;21.80;42.62;98252.63;4893933;28;102621;-88
2021/08/19 03:54:22;;;;;;;;;1.00;1.00;;;;;21.79;42.29;98257.31;4896386;28;104801;-88
2021/08/19 03:56:50;;;;;;;;;0.67;0.67;;;;;21.79;42.42;98251.00;4886303;28;102726;-88
2021/08/19 03:59:17;;;;;;;;;0.67;0.67;;;;;21.78;42.50;98252.09;4887358;28;102658;-88
2021/08/19 04:01:45;;;;;;;;;1.00;1.00;;;;;21.76;42.63;98257.06;4891587;28;104806;-88
2021/08/19 04:04:12;;;;;;;;;0.67;0.67;;;;;21.78;42.34;98257.59;4876344;28;104220;-88
2021/08/19 04:06:46;;;;;;;;;1.00;1.00;;;;;21.78;42.64;98257.59;4887652;28;103694;-88
2021/08/19 04:09:13;;;;;;;;;1.00;0.67;;;;;21.77;42.97;98258.72;4892211;28;102953;-88
2021/08/19 04:11:40;;;;;;;;;0.67;0.67;;;;;21.76;42.27;98255.13;4852148;28;103806;-88
2021/08/19 04:14:24;;;;;;;;;2.33;1.33;;;;;21.75;42.71;98255.41;4898378;28;105050;-87
2021/08/19 04:16:51;;;;;;;;;0.67;0.67;;;;;21.76;42.56;98265.31;4901960;28;102406;-87
2021/08/19 04:19:18;;;;;;;;;0.33;0.33;;;;;21.75;42.62;98258.16;4898425;28;104161;-87
2021/08/19 04:21:45;;;;;;;;;1.67;0.67;;;;;21.74;42.54;98268.38;4907189;28;102540;-87
2021/08/19 04:24:13;;;;;;;;;1.00;1.00;;;;;21.73;42.59;98263.13;4898906;28;104099;-90
2021/08/19 04:26:40;;;;;;;;;1.00;1.00;;;;;21.64;43.24;98259.31;4913651;28;102522;-87
2021/08/19 04:29:07;;;;;;;;;2.00;2.00;;;;;21.69;43.25;98259.31;4895055;28;102606;-87
2021/08/19 04:31:34;;;;;;;;;0.33;0.33;;;;;21.71;43.22;98268.09;4908388;28;104257;-88
2021/08/19 04:34:03;;;;;;;;;0.33;0.33;;;;;21.71;42.75;98262.56;4912083;28;104254;-88
2021/08/19 04:36:31;;;;;;;;;0.00;0.00;;;;;21.72;43.29;98264.22;4911800;28;102618;-88
2021/08/19 04:38:58;;;;;;;;;0.67;0.67;;;;;21.71;43.05;98254.31;4899524;28;102639;-87
2021/08/19 04:41:25;;;;;;;;;1.00;1.00;;;;;21.71;43.24;98259.81;4901654;28;102609;-87
2021/08/19 04:43:52;;;;;;;;;1.00;1.00;;;;;21.70;43.01;98247.19;4911933;28;104195;-88
2021/08/19 04:46:19;;;;;;;;;2.00;1.00;;;;;21.68;43.37;98241.97;4895653;28;102476;-87
2021/08/19 04:48:47;;;;;;;;;0.00;0.00;;;;;21.66;43.36;98254.34;4903878;28;102678;-87
2021/08/19 04:51:14;;;;;;;;;3.33;0.67;;;;;21.67;43.23;98245.81;4903039;28;102544;-87
2021/08/19 04:53:41;;;;;;;;;1.67;0.67;;;;;21.67;42.94;98247.72;4899446;28;104592;-87
2021/08/19 04:56:08;;;;;;;;;0.67;0.67;;;;;21.64;43.09;98251.06;4908509;28;102429;-88
2021/08/19 04:58:37;;;;;;;;;1.00;1.00;;;;;21.63;43.63;98250.22;4895844;28;102605;-88
2021/08/19 05:01:04;;;;;;;;;1.00;0.67;;;;;21.64;43.06;98262.06;4897043;28;103385;-87
2021/08/19 05:03:31;;;;;;;;;0.67;0.67;;;;;21.64;43.49;98256.56;4900925;28;104129;-88
2021/08/19 05:05:59;;;;;;;;;0.67;0.67;;;;;21.66;43.41;98259.84;4892116;28;102374;-88
2021/08/19 05:08:27;;;;;;;;;1.00;1.00;;;;;21.66;43.13;98254.34;4895530;28;110743;-88
2021/08/19 05:10:54;;;;;;;;;2.00;1.33;;;;;;;;4913855;28;102666;-88
2021/08/19 05:13:21;;;;;;;;;1.00;1.00;;;;;21.64;43.22;98257.38;4899163;28;104275;-88
2021/08/19 05:15:48;;;;;;;;;0.67;0.67;;;;;21.64;43.47;98251.06;4903461;28;102591;-87
2021/08/19 05:18:15;;;;;;;;;1.00;1.00;;;;;21.63;43.69;98255.72;4908680;28;103205;-88
2021/08/19 05:20:43;;;;;;;;;1.33;0.67;;;;;21.63;43.18;98258.47;4904478;28;104517;-88
2021/08/19 05:23:10;;;;;;;;;1.33;1.00;;;;;21.55;43.68;98242.56;4897371;28;104078;-88
2021/08/19 05:25:37;;;;;;;;;0.67;0.67;;;;;21.62;43.82;98245.81;4900976;28;103347;-88
2021/08/19 05:28:04;;;;;;;;;1.67;1.67;;;;;21.63;43.52;98252.16;4891682;28;103482;-88
2021/08/19 05:30:31;;;;;;;;;0.67;0.67;;;;;21.61;43.50;98257.13;4903148;28;102661;-88
2021/08/19 05:32:58;;;;;;;;;1.00;1.00;;;;;21.61;43.58;98255.22;4897118;28;104674;-88
2021/08/19 05:35:26;;;;;;;;;0.00;0.00;;;;;21.61;43.51;98255.22;4907137;28;102519;-88
2021/08/19 05:37:53;;;;;;;;;0.67;0.67;;;;;21.60;44.18;98261.81;4909628;28;102666;-88
2021/08/19 05:40:20;;;;;;;;;2.00;1.00;;;;;21.61;43.83;98268.13;4903701;28;103439;-88
2021/08/19 05:42:47;;;;;;;;;1.00;1.00;;;;;21.62;43.83;98272.50;4901775;28;104102;-87
2021/08/19 05:45:15;;;;;;;;;0.00;0.00;;;;;21.61;44.14;98268.13;4922152;28;102367;-88
2021/08/19 05:47:42;;;;;;;;;0.67;0.00;;;;;21.61;43.59;98273.66;4910860;28;103384;-88
2021/08/19 05:50:12;;;;;;;;;1.33;0.67;;;;;21.48;43.87;98241.22;4908340;28;103500;-88
2021/08/19 05:52:40;;;;;;;;;1.67;1.00;;;;;21.62;44.07;98278.03;4919864;28;104449;-88
2021/08/19 05:55:07;;;;;;;;;0.67;0.67;;;;;21.62;43.82;98269.75;4908823;28;102267;-88
2021/08/19 05:57:35;;;;;;;;;0.67;0.67;;;;;21.62;44.15;98278.03;4922049;28;102531;-88
2021/08/19 06:00:05;;;;;;;;;0.00;0.00;;;;;21.62;43.92;98270.59;4928540;28;102630;-88
2021/08/19 06:02:33;;;;;;;;;0.67;0.67;;;;;21.59;43.94;98271.16;4909476;28;104057;-88
2021/08/19 06:05:00;;;;;;;;;0.67;0.67;;;;;21.62;44.26;98275.25;4903429;28;103363;-88
2021/08/19 06:07:27;;;;;;;;;1.33;0.33;;;;;21.58;44.16;98266.75;4903182;28;103965;-87
2021/08/19 06:09:55;;;;;;;;;0.00;0.00;;;;;21.61;44.09;98268.13;4916489;28;102707;-87
2021/08/19 06:12:22;;;;;;;;;0.33;0.33;;;;;21.60;44.46;98269.25;4925923;28;104336;-88
2021/08/19 06:14:52;;;;;;;;;0.67;0.00;;;;;21.60;44.27;98272.00;4910449;28;105032;-88
2021/08/19 06:17:19;;;;;;;;;0.00;0.00;;;;;21.60;44.60;98269.25;4911283;28;102615;-87
2021/08/19 06:19:46;;;;;;;;;0.00;0.00;;;;;21.63;44.12;98271.41;4903759;28;102268;-88
2021/08/19 06:22:13;;;;;;;;;0.67;0.67;;;;;21.61;44.31;98276.41;4897567;28;104300;-88
2021/08/19 06:24:41;;;;;;;;;0.00;0.00;;;;;21.62;44.49;98273.34;4903653;28;102682;-88
2021/08/19 06:27:09;;;;;;;;;0.33;0.33;;;;;21.62;44.91;98272.50;4900989;28;102984;-88
2021/08/19 06:29:37;;;;;;;;;1.00;1.00;;;;;21.62;44.40;98259.59;4902295;28;103883;-88
2021/08/19 06:32:04;;;;;;;;;0.67;0.67;;;;;21.65;44.68;98266.47;4894612;28;105286;-88
2021/08/19 06:34:34;;;;;;;;;1.00;1.00;;;;;21.64;44.70;98267.56;4903847;28;102426;-88
2021/08/19 06:37:02;;;;;;;;;0.00;0.00;;;;;21.63;44.84;98258.47;4899851;28;102412;-87
2021/08/19 06:39:29;;;;;;;;;1.33;0.00;;;;;21.64;44.64;98279.41;4899389;28;111094;-88
2021/08/19 06:41:56;;;;;;;;;0.00;0.00;;;;;21.66;44.36;98265.34;4902282;28;104129;-88
2021/08/19 06:44:23;;;;;;;;;1.00;0.00;;;;;21.67;44.53;98267.00;4902387;28;103179;-87
2021/08/19 06:46:51;;;;;;;;;1.00;1.00;;;;;21.67;44.64;98267.00;4897750;28;102525;-88
2021/08/19 06:49:18;;;;;;;;;0.33;0.33;;;;;21.67;44.58;98273.31;4906239;28;102712;-87
2021/08/19 06:51:45;;;;;;;;;0.67;0.67;;;;;21.69;45.07;98273.06;4893958;28;108981;-87
2021/08/19 06:54:12;;;;;;;;;1.00;1.00;;;;;21.70;44.61;98270.00;4898498;28;102444;-88
2021/08/19 06:56:39;;;;;;;;;0.00;0.00;;;;;21.70;44.60;98274.72;4906937;28;102453;-88
2021/08/19 06:59:06;;;;;;;;;0.00;0.00;;;;;21.72;44.74;98273.31;4898686;28;104159;-87
2021/08/19 07:01:33;;;;;;;;;0.67;0.00;;;;;21.74;44.92;98276.63;4900578;28;103891;-87
2021/08/19 07:04:01;;;;;;;;;0.00;0.00;;;;;21.73;44.66;98271.38;4904319;28;102657;-87
2021/08/19 07:06:29;;;;;;;;;2.00;1.00;;;;;21.76;44.91;98268.06;4897297;28;103494;-87
2021/08/19 07:08:56;;;;;;;;;0.33;0.33;;;;;21.77;45.03;98272.47;4900271;28;102225;-87
2021/08/19 07:11:23;;;;;;;;;2.00;0.67;;;;;21.77;44.95;98261.47;4904779;28;104080;-88
2021/08/19 07:13:50;;;;;;;;;0.67;0.67;;;;;21.78;44.98;98268.63;4899954;28;102177;-88
2021/08/19 07:16:17;;;;;;;;;0.67;0.67;;;;;21.79;45.18;98262.00;4895078;28;102664;-88
2021/08/19 07:18:44;;;;;;;;;0.67;0.67;;;;;21.80;44.82;98266.38;4894693;28;102871;-88
2021/08/19 07:21:11;;;;;;;;;1.00;1.00;;;;;21.81;45.03;98262.53;4869461;28;104147;-88
2021/08/19 07:23:39;;;;;;;;;0.33;0.33;;;;;21.81;45.16;98262.53;4900321;28;102222;-88
2021/08/19 07:26:06;;;;;;;;;0.67;0.67;;;;;21.81;45.17;98257.88;4900407;28;102186;-88
2021/08/19 07:28:33;;;;;;;;;2.00;1.00;;;;;21.82;45.39;98261.44;4896494;28;102309;-87
2021/08/19 07:31:01;;;;;;;;;0.00;0.00;;;;;21.83;45.47;98254.84;4914896;28;104105;-88
2021/08/19 07:33:31;;;;;;;;;1.00;1.00;;;;;21.84;45.44;98258.41;4893588;28;102470;-88
2021/08/19 07:35:58;;;;;;;;;1.00;1.00;;;;;21.84;45.40;98261.97;4882129;28;102481;-88
2021/08/19 07:38:25;;;;;;;;;0.00;0.00;;;;;21.85;45.47;98252.63;4909404;28;102733;-88
2021/08/19 07:41:26;;;;;;;;;0.67;0.67;;;;;21.85;45.27;98258.13;4905636;28;104503;-87
2021/08/19 07:43:53;;;;;;;;;0.00;0.00;;;;;21.86;45.39;98253.44;4896233;28;102712;-87
2021/08/19 07:46:21;;;;;;;;;0.00;0.00;;;;;21.87;45.49;98255.09;4895392;28;102414;-88
2021/08/19 07:48:48;;;;;;;;;1.00;0.67;;;;;21.87;45.22;98261.44;4913392;28;103454;-87
2021/08/19 07:51:16;;;;;;;;;1.00;1.00;;;;;21.89;45.52;98250.13;4899119;28;112216;-87
2021/08/19 07:53:43;;;;;;;;;0.67;0.67;;;;;21.89;45.51;98250.94;4901430;28;102231;-87
2021/08/19 07:56:10;;;;;;;;;1.67;1.67;;;;;21.90;45.56;98249.84;4901655;28;102558;-88
2021/08/19 07:58:40;;;;;;;;;1.00;0.33;;;;;21.90;45.38;98249.00;4897513;28;102659;-88
2021/08/19 08:01:07;;;;;;;;;0.00;0.00;;;;;21.91;45.63;98253.41;4897558;28;103864;-87
2021/08/19 08:03:38;;;;;;;;;0.67;0.67;;;;;21.92;45.79;98253.16;4891244;28;102264;-88
2021/08/19 08:06:05;;;;;;;;;1.00;1.00;;;;;21.93;45.77;98260.31;4895892;28;104326;-88
2021/08/19 08:08:32;;;;;;;;;0.00;0.00;;;;;21.94;45.92;98250.94;4905502;28;102306;-88
2021/08/19 08:10:59;;;;;;;;;0.00;0.00;;;;;21.96;45.46;98257.00;4899809;28;104080;-87
2021/08/19 08:13:26;;;;;;;;;0.00;0.00;;;;;21.96;45.55;98248.75;4891971;28;102612;-88
2021/08/19 08:15:54;;;;;;;;;0.67;0.00;;;;;21.98;45.41;98243.75;4909532;28;102250;-88
2021/08/19 08:18:21;;;;;;;;;0.33;0.33;;;;;21.98;45.32;98257.53;4890653;28;102441;-87
2021/08/19 08:20:48;;;;;;;;;0.00;0.00;;;;;21.99;46.03;98253.69;4889902;28;104084;-88
2021/08/19 08:23:18;;;;;;;;;0.00;0.00;;;;;22.00;45.39;98255.34;4898269;28;102394;-87
2021/08/19 08:25:49;;;;;;;;;0.33;0.00;;;;;22.01;45.75;98253.41;4889309;28;105320;-88
2021/08/19 08:28:20;;;;;;;;;0.00;0.00;;;;;22.02;45.60;98249.56;4897968;28;102921;-88
2021/08/19 08:30:51;;;;;;;;;0.67;0.67;;;;;22.01;45.79;98251.47;4903117;28;109063;-87
2021/08/19 08:33:19;;;;;;;;;1.00;0.67;;;;;22.03;46.08;98254.75;4893628;28;102732;-87
2021/08/19 08:35:46;;;;;;;;;0.00;0.00;;;;;22.04;45.98;98250.91;4897045;28;104422;-87
2021/08/19 08:38:17;;;;;;;;;0.00;0.00;;;;;22.05;46.35;98252.56;4904360;28;102265;-88
2021/08/19 08:40:46;;;;;;;;;0.00;0.00;;;;;22.07;46.13;98253.06;4897137;28;104085;-88
2021/08/19 08:43:14;;;;;;;;;0.00;0.00;;;;;22.08;46.00;98259.41;4892628;28;102528;-88
2021/08/19 08:45:42;;;;;;;;;1.00;1.00;;;;;22.08;45.99;98263.00;4903919;28;102143;-88
2021/08/19 08:48:21;;;;;;;;;0.00;0.00;;;;;22.09;45.95;98264.66;4894943;28;102175;-88
2021/08/19 08:50:51;;;;;;;;;0.67;0.67;;;;;22.11;45.83;98256.91;4889755;28;109113;-88
2021/08/19 08:53:18;;;;;;;;;0.00;0.00;;;;;22.12;45.67;98252.22;4897650;28;102594;-88
2021/08/19 08:55:45;;;;;;;;;0.00;0.00;;;;;22.13;45.67;98257.47;4894918;28;102346;-88
2021/08/19 08:58:13;;;;;;;;;0.33;0.33;;;;;22.14;45.69;98261.88;4903965;28;102677;-87
2021/08/19 09:00:41;;;;;;;;;0.00;0.00;;;;;22.14;45.97;98264.63;4900604;28;104731;-87
2021/08/19 09:03:13;;;;;;;;;0.00;0.00;;;;;22.16;45.90;98265.16;4910827;28;102370;-87
2021/08/19 09:05:45;;;;;;;;;0.00;0.00;;;;;22.18;45.90;98256.59;4893685;28;103685;-87
2021/08/19 09:08:19;;;;;;;;;1.00;1.00;;;;;22.19;45.79;98270.09;4900468;28;104351;-87
2021/08/19 09:10:47;;;;;;;;;0.00;0.00;;;;;22.19;45.81;98253.59;4881658;28;104641;-87
2021/08/19 09:13:16;;;;;;;;;1.00;0.67;;;;;22.21;45.85;98262.38;4890735;28;103026;-87
2021/08/19 09:15:44;;;;;;;;;0.67;0.67;;;;;22.22;45.73;98263.19;4904375;28;102173;-87
2021/08/19 09:18:34;;;;;;;;;0.00;0.00;;;;;22.24;45.69;98261.78;4894767;28;102479;-88
2021/08/19 09:21:01;;;;;;;;;0.00;0.00;;;;;22.24;46.12;98261.00;4840501;28;109328;-87
2021/08/19 09:23:28;;;;;;;;;0.00;0.00;;;;;22.25;45.49;98249.66;4916848;28;102490;-88
2021/08/19 09:25:55;;;;;;;;;0.00;0.00;;;;;22.27;45.92;98252.16;4915317;28;103504;-88
2021/08/19 09:28:23;;;;;;;;;0.00;0.00;;;;;22.28;45.84;98261.25;4923739;28;105162;-87
2021/08/19 09:30:57;;;;;;;;;0.00;0.00;;;;;22.28;45.63;98245.53;4917725;28;103888;-88
2021/08/19 09:33:27;;;;;;;;;0.00;0.00;;;;;22.31;46.01;98249.63;4909513;28;102321;-88
2021/08/19 09:35:56;;;;;;;;;0.00;0.00;;;;;22.31;45.68;98258.72;4921376;28;102119;-87
2021/08/19 09:38:24;;;;;;;;;0.00;0.00;;;;;22.32;45.48;98257.63;4895143;28;102774;-88
2021/08/19 09:41:04;;;;;;;;;0.33;0.33;;;;;22.34;45.39;98251.81;4918620;28;104095;-87
2021/08/19 09:43:42;;;;;;;;;0.00;0.00;;;;;22.35;45.63;98257.06;4857657;28;102520;-87
2021/08/19 09:46:11;;;;;;;;;0.00;0.00;;;;;22.36;45.57;98255.94;4917638;28;102229;-87
2021/08/19 09:48:38;;;;;;;;;1.00;1.00;;;;;22.36;45.53;98264.22;4911002;28;102658;-87
2021/08/19 09:51:14;;;;;;;;;0.00;0.00;;;;;22.38;45.60;98261.19;4906610;28;104109;-87
2021/08/19 09:53:46;;;;;;;;;1.67;1.00;;;;;22.39;45.53;98260.06;4919423;28;102538;-87
2021/08/19 09:56:13;;;;;;;;;0.67;0.00;;;;;22.40;45.43;98253.44;4911508;28;102099;-87
2021/08/19 09:58:41;;;;;;;;;0.00;0.00;;;;;22.40;45.47;98243.25;4934566;28;103058;-87
2021/08/19 10:01:08;;;;;;;;;0.00;0.00;;;;;22.41;45.74;98249.56;4915259;28;104623;-87
2021/08/19 10:03:37;;;;;;;;;0.00;0.00;;;;;22.43;45.77;98250.09;4912019;28;102515;-87
2021/08/19 10:06:04;;;;;;;;;0.00;0.00;;;;;22.43;45.52;98242.66;4909423;28;102409;-87
2021/08/19 10:08:31;;;;;;;;;1.00;1.00;;;;;22.44;45.62;98236.06;4916652;28;102301;-88
2021/08/19 10:11:03;;;;;;;;;0.67;0.67;;;;;22.46;45.47;98241.28;4898281;28;104267;-87
2021/08/19 10:13:31;;;;;;;;;0.00;0.00;;;;;22.46;45.80;98247.63;4915615;28;102234;-87
2021/08/19 10:15:59;;;;;;;;;0.00;0.00;;;;;22.46;45.40;98238.53;4917813;28;105104;-88
2021/08/19 10:18:28;;;;;;;;;1.00;1.00;;;;;22.48;45.63;98231.59;4904172;28;102461;-87
2021/08/19 10:21:12;;;;;;;;;0.33;0.33;;;;;22.49;45.31;98229.69;4897625;28;104140;-87
2021/08/19 10:23:58;;;;;;;;;0.00;0.00;;;;;22.49;45.50;98229.69;4847270;28;103076;-87
2021/08/19 10:26:28;;;;;;;;;1.00;1.00;;;;;22.50;45.42;98225.81;4894279;28;102531;-87
2021/08/19 10:28:57;;;;;;;;;1.00;1.00;;;;;22.48;45.80;98234.38;4894854;28;102642;-87
2021/08/19 10:31:38;;;;;;;;;0.67;0.67;;;;;22.41;45.76;98217.34;4911178;28;104086;-87
2021/08/19 10:34:06;;;;;;;;;2.67;0.67;;;;;22.49;45.67;98237.94;4911364;28;102694;-87
2021/08/19 10:36:46;;;;;;;;;0.67;0.33;;;;;22.50;45.49;98234.09;4908496;28;102504;-87
2021/08/19 10:39:19;;;;;;;;;1.00;1.00;;;;;22.48;45.44;98226.09;4918809;28;104579;-87
2021/08/19 10:41:49;;;;;;;;;0.00;0.00;;;;;22.50;45.62;98231.34;4916251;28;108963;-87
2021/08/19 10:44:35;;;;;;;;;0.00;0.00;;;;;22.51;45.74;98230.22;4908504;28;102482;-87
2021/08/19 10:47:02;;;;;;;;;0.33;0.33;;;;;22.51;45.51;98232.97;4920473;28;102488;-87
2021/08/19 10:49:32;;;;;;;;;1.00;1.00;;;;;22.50;45.69;98232.16;4901351;28;102819;-88
2021/08/19 10:52:08;;;;;;;;;1.00;0.00;;;;;22.50;45.54;98228.56;4915148;28;104110;-87
2021/08/19 10:54:39;;;;;;;;;0.00;0.00;;;;;22.51;45.51;98228.31;4919087;28;102493;-88
2021/08/19 10:57:28;;;;;;;;;1.00;0.00;;;;;22.50;45.50;98225.81;4920026;28;102328;-87
2021/08/19 10:59:58;;;;;;;;;0.00;0.00;;;;;22.51;45.55;98224.72;4910951;28;102622;-88
2021/08/19 11:02:45;;;;;;;;;0.00;0.00;;;;;22.51;45.42;98227.47;4923606;28;104076;-87
2021/08/19 11:05:22;;;;;;;;;1.00;1.00;;;;;22.52;45.40;98229.09;4921006;28;102122;-87
2021/08/19 11:07:56;;;;;;;;;0.00;0.00;;;;;22.51;45.56;98228.31;4910064;28;104706;-87
2021/08/19 11:10:35;;;;;;;;;0.00;0.00;;;;;22.53;45.57;98228.00;4902938;28;102712;-88
2021/08/19 11:13:03;;;;;;;;;0.00;0.00;;;;;22.52;45.62;98234.59;4842740;28;109120;-87
2021/08/19 11:15:30;;;;;;;;;1.67;1.67;;;;;22.49;45.59;98230.50;4906149;28;102583;-87
2021/08/19 11:17:58;;;;;;;;;0.00;0.00;;;;;22.52;45.42;98232.69;4909360;28;102392;-87
2021/08/19 11:20:30;;;;;;;;;1.00;0.00;;;;;22.53;45.47;98228.00;4903962;28;102704;-88
2021/08/19 11:23:07;;;;;;;;;0.67;0.00;;;;;22.52;45.70;98229.09;4911621;28;104285;-87
2021/08/19 11:25:44;;;;;;;;;0.67;0.00;;;;;22.52;45.70;98229.91;4917506;28;102528;-88
2021/08/19 11:28:19;;;;;;;;;1.00;1.00;;;;;22.51;45.73;98221.97;4916343;28;102655;-88
2021/08/19 11:30:47;;;;;;;;;0.33;0.33;;;;;22.54;45.54;98232.41;4914984;28;102634;-88
2021/08/19 11:33:21;;;;;;;;;0.67;0.00;;;;;22.53;45.65;98226.06;4907342;28;104220;-87
2021/08/19 11:35:58;;;;;;;;;0.00;0.00;;;;;22.54;45.36;98235.16;4915340;28;103215;-87
2021/08/19 11:38:26;;;;;;;;;0.00;0.00;;;;;22.54;45.61;98235.97;4913139;28;102712;-87